createdAt,value
2022-11-05T00:02:37.540Z,1.80
2022-11-05T00:05:24.134Z,1.50
2022-11-05T00:08:12.454Z,1.60
2022-11-05T00:10:42.339Z,1.50
2022-11-05T00:13:40.889Z,1.70
2022-11-05T00:16:32.604Z,2.37
2022-11-05T00:19:07.471Z,2.43
2022-11-05T00:21:56.210Z,2.80
2022-11-05T00:24:42.895Z,1.93
2022-11-05T00:27:12.742Z,2.53
2022-11-05T00:29:41.392Z,1.80
2022-11-05T00:32:10.097Z,1.70
2022-11-05T00:34:38.678Z,1.73
2022-11-05T00:37:07.313Z,1.40
2022-11-05T00:39:35.631Z,1.33
2022-11-05T00:42:21.549Z,1.80
2022-11-05T00:45:03.096Z,1.30
2022-11-05T00:47:50.268Z,1.57
2022-11-05T00:50:19.767Z,1.70
2022-11-05T00:52:57.972Z,1.50
2022-11-05T00:55:33.282Z,1.53
2022-11-05T00:58:04.051Z,1.50
2022-11-05T01:00:37.325Z,2.27
2022-11-05T01:03:09.285Z,2.53
2022-11-05T01:05:44.401Z,2.43
2022-11-05T01:08:14.834Z,2.53
2022-11-05T01:10:43.805Z,2.47
2022-11-05T01:13:14.436Z,2.80
2022-11-05T01:15:44.769Z,3.07
2022-11-05T01:18:13.554Z,3.60
2022-11-05T01:20:41.910Z,3.67
2022-11-05T01:23:13.688Z,3.87
2022-11-05T01:25:42.656Z,3.97
2022-11-05T01:28:11.567Z,4.87
2022-11-05T01:30:40.432Z,4.00
2022-11-05T01:33:10.387Z,4.00
2022-11-05T01:35:40.848Z,3.63
2022-11-05T01:38:09.436Z,4.53
2022-11-05T01:40:38.033Z,5.20
2022-11-05T01:43:15.579Z,6.17
2022-11-05T01:45:45.897Z,7.57
2022-11-05T01:48:19.820Z,7.73
2022-11-05T01:51:00.871Z,7.00
2022-11-05T01:53:37.462Z,7.83
2022-11-05T01:56:10.689Z,8.50
2022-11-05T01:58:48.634Z,8.50
2022-11-05T02:01:18.313Z,9.37
2022-11-05T02:03:54.174Z,8.93
2022-11-05T02:06:23.412Z,9.20
2022-11-05T02:09:02.951Z,9.33
2022-11-05T02:11:31.799Z,8.97
2022-11-05T02:14:00.779Z,8.70
2022-11-05T02:16:40.710Z,8.70
2022-11-05T02:19:48.139Z,8.80
2022-11-05T02:22:42.038Z,9.17
2022-11-05T02:25:47.436Z,9.13
2022-11-05T02:28:45.551Z,9.67
2022-11-05T02:31:27.241Z,8.83
2022-11-05T02:34:03.954Z,9.33
2022-11-05T02:36:46.865Z,8.90
2022-11-05T02:39:36.805Z,8.43
2022-11-05T02:42:22.563Z,8.60
2022-11-05T02:44:58.134Z,9.60
2022-11-05T02:47:43.409Z,8.97
2022-11-05T02:50:25.433Z,8.00
2022-11-05T02:53:04.033Z,9.63
2022-11-05T02:55:38.439Z,9.13
2022-11-05T02:58:07.538Z,9.83
2022-11-05T03:00:55.798Z,10.27
2022-11-05T03:03:36.463Z,9.73
2022-11-05T03:06:28.429Z,8.97
2022-11-05T03:09:30.488Z,8.03
2022-11-05T03:12:05.963Z,8.33
2022-11-05T03:14:44.770Z,7.80
2022-11-05T03:17:22.436Z,7.00
2022-11-05T03:20:07.158Z,6.57
2022-11-05T03:22:41.863Z,6.10
2022-11-05T03:25:15.782Z,6.20
2022-11-05T03:27:49.442Z,5.87
2022-11-05T03:30:20.939Z,6.10
2022-11-05T03:32:57.465Z,6.07
2022-11-05T03:35:30.623Z,6.40
2022-11-05T03:38:03.803Z,5.70
2022-11-05T03:40:36.038Z,5.73
2022-11-05T03:43:08.323Z,5.43
2022-11-05T03:45:42.160Z,5.40
2022-11-05T03:48:15.705Z,5.33
2022-11-05T03:50:54.093Z,6.03
2022-11-05T03:53:27.291Z,6.63
2022-11-05T03:56:03.740Z,7.00
2022-11-05T03:58:33.237Z,6.80
2022-11-05T04:01:03.558Z,7.40
2022-11-05T04:03:36.230Z,7.60
2022-11-05T04:06:25.433Z,7.90
2022-11-05T04:09:11.499Z,7.77
2022-11-05T04:11:57.961Z,8.17
2022-11-05T04:14:27.163Z,8.10
2022-11-05T04:17:09.121Z,8.60
2022-11-05T04:20:04.590Z,8.20
2022-11-05T04:22:54.410Z,8.37
2022-11-05T04:25:23.960Z,8.77
2022-11-05T04:27:52.660Z,9.10
2022-11-05T04:30:20.805Z,8.57
2022-11-05T04:33:06.982Z,9.63
2022-11-05T04:35:38.131Z,9.40
2022-11-05T04:38:10.076Z,9.43
2022-11-05T04:40:39.261Z,10.37
2022-11-05T04:43:14.569Z,10.97
2022-11-05T04:45:44.515Z,11.40
2022-11-05T04:48:13.411Z,11.40
2022-11-05T04:50:42.128Z,11.23
2022-11-05T04:53:12.083Z,10.90
2022-11-05T04:55:40.982Z,12.73
2022-11-05T04:58:09.659Z,12.53
2022-11-05T05:00:38.349Z,13.43
2022-11-05T05:03:07.287Z,13.50
2022-11-05T05:05:35.978Z,13.20
2022-11-05T05:08:05.351Z,13.33
2022-11-05T05:10:35.362Z,13.50
2022-11-05T05:13:03.691Z,12.97
2022-11-05T05:15:32.651Z,12.80
2022-11-05T05:18:00.929Z,11.90
2022-11-05T05:20:46.521Z,13.00
2022-11-05T05:23:15.100Z,11.60
2022-11-05T05:25:45.151Z,12.13
2022-11-05T05:28:13.767Z,12.53
2022-11-05T05:30:42.386Z,12.60
2022-11-05T05:33:11.278Z,13.37
2022-11-05T05:35:39.749Z,13.53
2022-11-05T05:38:08.357Z,12.50
2022-11-05T05:40:36.820Z,13.13
2022-11-05T05:43:06.446Z,12.53
2022-11-05T05:45:37.314Z,13.17
2022-11-05T05:48:06.451Z,12.97
2022-11-05T05:50:35.021Z,14.60
2022-11-05T05:53:09.069Z,12.47
2022-11-05T05:55:37.827Z,15.00
2022-11-05T05:58:07.625Z,13.97
2022-11-05T06:00:36.246Z,14.40
2022-11-05T06:03:06.404Z,15.10
2022-11-05T06:05:35.190Z,15.77
2022-11-05T06:08:03.547Z,16.20
2022-11-05T06:10:32.254Z,14.57
2022-11-05T06:13:01.374Z,14.10
2022-11-05T06:15:35.636Z,13.40
2022-11-05T06:18:04.843Z,13.90
2022-11-05T06:20:33.489Z,14.60
2022-11-05T06:23:01.862Z,17.33
2022-11-05T06:25:30.497Z,15.70
2022-11-05T06:27:58.872Z,17.23
2022-11-05T06:30:27.485Z,16.47
2022-11-05T06:32:57.169Z,16.27
2022-11-05T06:35:25.512Z,17.53
2022-11-05T06:37:53.796Z,17.67
2022-11-05T06:40:22.372Z,18.73
2022-11-05T06:42:53.754Z,18.70
2022-11-05T06:45:22.745Z,18.97
2022-11-05T06:47:58.588Z,18.23
2022-11-05T06:50:29.108Z,19.23
2022-11-05T06:52:58.218Z,18.43
2022-11-05T06:55:28.137Z,18.20
2022-11-05T06:57:56.976Z,19.97
2022-11-05T07:00:25.919Z,19.17
2022-11-05T07:02:55.854Z,19.30
2022-11-05T07:05:25.816Z,18.93
2022-11-05T07:07:54.098Z,18.97
2022-11-05T07:10:22.770Z,18.53
2022-11-05T07:12:51.647Z,19.63
2022-11-05T07:15:20.112Z,17.70
2022-11-05T07:17:48.813Z,18.80
2022-11-05T07:20:17.484Z,18.20
2022-11-05T07:22:47.478Z,18.97
2022-11-05T07:25:16.121Z,18.50
2022-11-05T07:27:44.699Z,18.27
2022-11-05T07:30:13.565Z,18.10
2022-11-05T07:32:42.487Z,18.70
2022-11-05T07:35:11.435Z,17.20
2022-11-05T07:37:49.213Z,19.20
2022-11-05T07:40:19.518Z,18.27
2022-11-05T07:42:49.642Z,17.60
2022-11-05T07:45:18.914Z,17.50
2022-11-05T07:47:48.758Z,17.23
2022-11-05T07:50:18.713Z,18.03
2022-11-05T07:52:49.017Z,16.63
2022-11-05T07:55:21.096Z,16.70
2022-11-05T07:57:51.687Z,16.73
2022-11-05T08:00:22.472Z,16.57
2022-11-05T08:03:07.400Z,17.30
2022-11-05T08:05:39.443Z,15.53
2022-11-05T08:08:10.706Z,15.40
2022-11-05T08:10:40.332Z,17.07
2022-11-05T08:13:09.851Z,17.27
2022-11-05T08:15:39.208Z,16.37
2022-11-05T08:18:11.473Z,17.63
2022-11-05T08:20:41.503Z,16.67
2022-11-05T08:23:12.010Z,16.90
2022-11-05T08:25:41.225Z,18.50
2022-11-05T08:28:12.911Z,16.57
2022-11-05T08:30:42.109Z,17.83
2022-11-05T08:33:13.378Z,18.10
2022-11-05T08:35:42.288Z,18.67
2022-11-05T08:38:15.512Z,19.17
2022-11-05T08:40:46.591Z,18.73
2022-11-05T08:43:15.600Z,17.73
2022-11-05T08:45:44.227Z,17.83
2022-11-05T08:48:15.918Z,16.67
2022-11-05T08:50:45.718Z,14.53
2022-11-05T08:53:16.610Z,15.33
2022-11-05T08:55:47.596Z,13.57
2022-11-05T08:58:17.537Z,14.43
2022-11-05T09:00:48.470Z,14.37
2022-11-05T09:03:17.995Z,16.73
2022-11-05T09:05:47.147Z,12.73
2022-11-05T09:08:19.509Z,9.83
2022-11-05T09:10:49.788Z,8.57
2022-11-05T09:13:20.302Z,6.33
2022-11-05T09:15:49.639Z,6.53
2022-11-05T09:18:20.250Z,7.97
2022-11-05T09:20:49.027Z,8.03
2022-11-05T09:23:19.023Z,9.50
2022-11-05T09:25:48.142Z,8.93
2022-11-05T09:28:18.415Z,8.03
2022-11-05T09:30:48.508Z,7.90
2022-11-05T09:33:19.192Z,7.27
2022-11-05T09:35:48.443Z,8.87
2022-11-05T09:38:18.696Z,8.60
2022-11-05T09:40:58.418Z,8.57
2022-11-05T09:43:33.636Z,8.30
2022-11-05T09:46:10.457Z,7.57
2022-11-05T09:48:42.084Z,6.60
2022-11-05T09:51:20.814Z,5.87
2022-11-05T09:53:54.075Z,6.47
2022-11-05T09:56:28.282Z,6.27
2022-11-05T09:59:03.400Z,6.03
2022-11-05T10:01:36.917Z,6.07
2022-11-05T10:04:13.478Z,5.13
2022-11-05T10:06:48.892Z,5.50
2022-11-05T10:09:27.736Z,5.90
2022-11-05T10:12:07.391Z,4.87
2022-11-05T10:14:44.040Z,4.67
2022-11-05T10:17:21.291Z,4.43
2022-11-05T10:19:55.404Z,4.63
2022-11-05T10:22:24.141Z,4.30
2022-11-05T10:24:54.482Z,4.10
2022-11-05T10:27:25.492Z,3.40
2022-11-05T10:29:54.114Z,2.83
2022-11-05T10:32:30.207Z,2.07
2022-11-05T10:35:03.325Z,2.40
2022-11-05T10:37:37.026Z,2.53
2022-11-05T10:40:19.547Z,2.47
2022-11-05T10:43:01.445Z,2.53
2022-11-05T10:45:45.290Z,2.50
2022-11-05T10:48:43.844Z,2.90
2022-11-05T10:51:14.006Z,2.40
2022-11-05T10:53:58.712Z,2.33
2022-11-05T10:56:33.892Z,2.30
2022-11-05T10:59:09.383Z,2.17
2022-11-05T11:01:41.186Z,3.40
2022-11-05T11:04:18.170Z,3.65
2022-11-05T11:06:52.041Z,3.20
2022-11-05T11:09:25.205Z,3.58
2022-11-05T11:12:03.068Z,3.28
2022-11-05T11:14:32.028Z,2.83
2022-11-05T11:17:26.973Z,2.80
2022-11-05T11:20:29.023Z,3.05
2022-11-05T11:23:06.849Z,3.03
2022-11-05T11:25:48.891Z,2.70
2022-11-05T11:28:23.893Z,2.83
2022-11-05T11:31:04.740Z,2.45
2022-11-05T11:33:35.953Z,3.20
2022-11-05T11:36:05.080Z,3.80
2022-11-05T11:38:36.990Z,4.00
2022-11-05T11:41:26.446Z,4.20
2022-11-05T11:44:03.370Z,3.97
2022-11-05T11:46:35.477Z,3.70
2022-11-05T11:49:05.042Z,4.00
2022-11-05T11:51:37.661Z,5.30
2022-11-05T11:54:18.959Z,4.07
2022-11-05T11:56:49.318Z,3.77
2022-11-05T11:59:53.985Z,3.80
2022-11-05T12:02:42.833Z,4.80
2022-11-05T12:05:30.979Z,4.40
2022-11-05T12:08:13.840Z,3.87
2022-11-05T12:10:58.919Z,3.87
2022-11-05T12:14:04.818Z,3.70
2022-11-05T12:16:59.274Z,3.90
2022-11-05T12:19:45.742Z,4.40
2022-11-05T12:22:24.508Z,4.73
2022-11-05T12:25:22.569Z,5.00
2022-11-05T12:28:16.438Z,4.13
2022-11-05T12:30:55.625Z,4.00
2022-11-05T12:33:42.991Z,4.23
2022-11-05T12:36:23.749Z,4.50
2022-11-05T12:39:15.608Z,5.40
2022-11-05T12:41:54.822Z,4.50
2022-11-05T12:44:41.998Z,4.23
2022-11-05T12:47:31.935Z,5.10
2022-11-05T12:50:21.520Z,4.30
2022-11-05T12:53:35.257Z,4.80
2022-11-05T12:56:13.320Z,3.73
2022-11-05T12:58:45.453Z,3.75
2022-11-05T13:01:22.006Z,3.42
2022-11-05T13:03:59.328Z,3.65
2022-11-05T13:06:39.681Z,2.65
2022-11-05T13:09:15.262Z,3.03
2022-11-05T13:11:52.374Z,3.03
2022-11-05T13:14:27.357Z,3.33
2022-11-05T13:17:01.196Z,3.20
2022-11-05T13:19:34.509Z,3.53
2022-11-05T13:22:12.896Z,3.90
2022-11-05T13:24:49.525Z,4.28
2022-11-05T13:27:45.837Z,3.90
2022-11-05T13:30:18.351Z,3.17
2022-11-05T13:32:53.458Z,3.30
2022-11-05T13:35:28.487Z,3.20
2022-11-05T13:38:25.011Z,3.67
2022-11-05T13:41:13.106Z,3.77
2022-11-05T13:43:59.796Z,3.58
2022-11-05T13:46:55.120Z,3.97
2022-11-05T13:50:03.251Z,3.65
2022-11-05T13:52:52.114Z,3.83
2022-11-05T13:55:49.797Z,4.00
2022-11-05T13:59:04.785Z,4.40
2022-11-05T14:01:49.371Z,4.15
2022-11-05T14:04:36.405Z,4.30
2022-11-05T14:07:11.775Z,4.45
2022-11-05T14:09:43.108Z,4.00
2022-11-05T14:12:25.480Z,4.47
2022-11-05T14:14:59.106Z,4.33
2022-11-05T14:17:33.413Z,4.67
2022-11-05T14:20:24.640Z,3.57
2022-11-05T14:22:53.754Z,3.00
2022-11-05T14:25:53.873Z,4.13
2022-11-05T14:28:44.722Z,4.50
2022-11-05T14:32:07.679Z,5.60
2022-11-05T14:34:54.701Z,4.90
2022-11-05T14:37:32.153Z,5.07
2022-11-05T14:40:31.518Z,4.33
2022-11-05T14:43:03.020Z,4.50
2022-11-05T14:45:37.216Z,4.30
2022-11-05T14:48:23.585Z,4.47
2022-11-05T14:50:52.893Z,4.53
2022-11-05T14:53:36.999Z,4.00
2022-11-05T14:56:09.993Z,4.00
2022-11-05T14:58:40.154Z,4.00
2022-11-05T15:01:31.352Z,4.57
2022-11-05T15:04:17.376Z,5.10
2022-11-05T15:07:29.855Z,4.87
2022-11-05T15:10:10.657Z,4.93
2022-11-05T15:12:45.772Z,3.83
2022-11-05T15:15:23.531Z,4.17
2022-11-05T15:18:02.802Z,3.90
2022-11-05T15:20:40.719Z,4.53
2022-11-05T15:23:15.559Z,4.30
2022-11-05T15:25:53.704Z,4.27
2022-11-05T15:28:33.825Z,4.50
2022-11-05T15:31:06.095Z,6.97
2022-11-05T15:33:35.737Z,8.53
2022-11-05T15:36:12.666Z,6.53
2022-11-05T15:38:56.571Z,6.03
2022-11-05T15:41:34.683Z,5.23
2022-11-05T15:44:03.369Z,6.50
2022-11-05T15:46:32.050Z,7.50
2022-11-05T15:49:10.691Z,7.57
2022-11-05T15:51:39.340Z,7.70
2022-11-05T15:54:35.928Z,7.37
2022-11-05T15:57:05.516Z,7.33
2022-11-05T15:59:35.335Z,9.13
2022-11-05T16:02:28.761Z,8.50
2022-11-05T16:05:00.667Z,8.50
2022-11-05T16:07:30.096Z,9.10
2022-11-05T16:10:01.669Z,9.47
2022-11-05T16:12:36.139Z,9.37
2022-11-05T16:15:21.127Z,7.90
2022-11-05T16:17:54.550Z,8.27
2022-11-05T16:20:32.791Z,9.57
2022-11-05T16:23:04.158Z,8.87
2022-11-05T16:25:42.201Z,9.83
2022-11-05T16:28:23.199Z,9.17
2022-11-05T16:30:56.888Z,11.80
2022-11-05T16:33:27.473Z,13.33
2022-11-05T16:35:57.165Z,13.40
2022-11-05T16:38:26.115Z,14.60
2022-11-05T16:40:54.784Z,15.30
2022-11-05T16:43:25.430Z,16.50
2022-11-05T16:45:56.620Z,18.87
2022-11-05T16:48:25.980Z,26.60
2022-11-05T16:50:56.190Z,26.93
2022-11-05T16:53:25.253Z,24.87
2022-11-05T16:55:53.560Z,22.43
2022-11-05T16:58:24.076Z,19.37
2022-11-05T17:01:03.064Z,20.00
2022-11-05T17:03:31.614Z,20.97
2022-11-05T17:06:01.448Z,14.03
2022-11-05T17:08:30.767Z,7.37
2022-11-05T17:10:59.152Z,5.63
2022-11-05T17:13:27.483Z,5.83
2022-11-05T17:15:56.075Z,5.50
2022-11-05T17:18:25.293Z,5.30
2022-11-05T17:20:56.435Z,5.67
2022-11-05T17:23:28.775Z,6.07
2022-11-05T17:26:02.943Z,8.33
2022-11-05T17:28:32.112Z,7.20
2022-11-05T17:31:01.572Z,4.90
2022-11-05T17:33:30.915Z,5.80
2022-11-05T17:35:59.522Z,5.10
2022-11-05T17:38:29.187Z,5.13
2022-11-05T17:40:57.827Z,6.40
2022-11-05T17:43:26.216Z,5.83
2022-11-05T17:46:01.496Z,6.10
2022-11-05T17:48:32.854Z,6.43
2022-11-05T17:51:01.524Z,6.50
2022-11-05T17:53:31.997Z,13.07
2022-11-05T17:56:00.639Z,12.70
2022-11-05T17:58:29.062Z,15.63
2022-11-05T18:00:57.656Z,13.97
2022-11-05T18:03:26.315Z,13.47
2022-11-05T18:05:54.899Z,14.17
2022-11-05T18:08:23.466Z,12.77
2022-11-05T18:10:54.846Z,11.30
2022-11-05T18:13:23.446Z,9.60
2022-11-05T18:15:54.203Z,10.77
2022-11-05T18:18:23.157Z,9.20
2022-11-05T18:20:51.760Z,9.30
2022-11-05T18:23:21.272Z,9.33
2022-11-05T18:25:49.622Z,9.10
2022-11-05T18:28:19.345Z,9.47
2022-11-05T18:30:47.993Z,7.93
2022-11-05T18:33:16.629Z,8.33
2022-11-05T18:35:45.544Z,8.47
2022-11-05T18:38:14.119Z,8.40
2022-11-05T18:40:42.772Z,8.63
2022-11-05T18:43:11.593Z,7.83
2022-11-05T18:45:41.523Z,7.87
2022-11-05T18:48:10.836Z,8.40
2022-11-05T18:50:41.200Z,8.97
2022-11-05T18:53:09.780Z,9.17
2022-11-05T18:55:40.429Z,10.60
2022-11-05T18:58:09.210Z,19.23
2022-11-05T19:00:41.466Z,61.87
2022-11-05T19:03:10.688Z,29.30
2022-11-05T19:05:39.321Z,29.80
2022-11-05T19:08:07.929Z,15.13
2022-11-05T19:10:36.536Z,15.40
2022-11-05T19:13:05.143Z,16.97
2022-11-05T19:15:33.747Z,15.50
2022-11-05T19:18:03.657Z,12.87
2022-11-05T19:20:37.472Z,15.20
2022-11-05T19:23:06.639Z,14.80
2022-11-05T19:25:34.991Z,12.60
2022-11-05T19:28:03.589Z,11.13
2022-11-05T19:30:32.217Z,11.67
2022-11-05T19:33:01.812Z,11.50
2022-11-05T19:35:30.475Z,11.87
2022-11-05T19:37:58.714Z,11.43
2022-11-05T19:40:27.025Z,11.50
2022-11-05T19:42:55.276Z,11.60
2022-11-05T19:45:43.662Z,9.73
2022-11-05T19:48:19.090Z,10.43
2022-11-05T19:50:48.483Z,10.47
2022-11-05T19:53:16.856Z,10.57
2022-11-05T19:55:45.242Z,10.77
2022-11-05T19:58:14.187Z,9.40
2022-11-05T20:00:43.162Z,10.03
2022-11-05T20:03:13.336Z,10.33
2022-11-05T20:05:41.985Z,9.60
2022-11-05T20:08:10.934Z,9.63
2022-11-05T20:10:39.725Z,9.33
2022-11-05T20:13:08.323Z,10.40
2022-11-05T20:15:39.753Z,10.67
2022-11-05T20:18:08.770Z,10.17
2022-11-05T20:20:38.821Z,10.27
2022-11-05T20:23:07.386Z,15.40
2022-11-05T20:25:36.097Z,16.17
2022-11-05T20:28:05.886Z,14.77
2022-11-05T20:30:34.661Z,12.93
2022-11-05T20:33:03.300Z,13.03
2022-11-05T20:35:31.922Z,14.00
2022-11-05T20:38:01.561Z,13.80
2022-11-05T20:40:30.189Z,13.53
2022-11-05T20:42:58.814Z,12.27
2022-11-05T20:45:27.492Z,11.57
2022-11-05T20:47:56.100Z,10.90
2022-11-05T20:50:24.730Z,11.87
2022-11-05T20:52:53.386Z,12.20
2022-11-05T20:55:23.120Z,11.10
2022-11-05T20:57:51.705Z,11.53
2022-11-05T21:00:20.308Z,11.10
2022-11-05T21:02:49.039Z,10.67
2022-11-05T21:05:17.770Z,11.07
2022-11-05T21:07:46.385Z,10.80
2022-11-05T21:10:14.718Z,11.40
2022-11-05T21:12:44.923Z,10.87
2022-11-05T21:15:13.749Z,10.77
2022-11-05T21:17:42.334Z,10.87
2022-11-05T21:20:11.390Z,10.90
2022-11-05T21:22:43.015Z,11.50
2022-11-05T21:25:11.457Z,10.93
2022-11-05T21:27:43.525Z,11.93
2022-11-05T21:30:14.956Z,11.03
2022-11-05T21:32:43.557Z,10.87
2022-11-05T21:35:12.211Z,10.70
2022-11-05T21:37:40.770Z,11.00
2022-11-05T21:40:10.550Z,11.30
2022-11-05T21:42:39.171Z,10.63
2022-11-05T21:45:08.880Z,10.20
2022-11-05T21:47:38.542Z,10.70
2022-11-05T21:50:08.024Z,11.27
2022-11-05T21:52:54.515Z,12.57
2022-11-05T21:55:40.537Z,11.10
2022-11-05T21:58:33.950Z,10.90
2022-11-05T22:01:03.116Z,12.20
2022-11-05T22:03:33.073Z,10.20
2022-11-05T22:06:01.699Z,10.80
2022-11-05T22:08:30.375Z,14.37
2022-11-05T22:10:58.997Z,18.30
2022-11-05T22:13:27.649Z,20.50
2022-11-05T22:15:56.734Z,15.17
2022-11-05T22:18:25.153Z,11.60
2022-11-05T22:20:54.810Z,7.80
2022-11-05T22:23:23.462Z,7.70
2022-11-05T22:25:59.085Z,8.20
2022-11-05T22:28:27.491Z,9.03
2022-11-05T22:30:56.130Z,8.47
2022-11-05T22:33:24.793Z,9.83
2022-11-05T22:35:54.759Z,13.43
2022-11-05T22:38:23.357Z,11.03
2022-11-05T22:40:51.632Z,11.93
2022-11-05T22:43:20.278Z,12.47
2022-11-05T22:45:48.922Z,12.70
2022-11-05T22:48:17.577Z,12.03
2022-11-05T22:50:46.186Z,10.27
2022-11-05T22:53:16.153Z,9.63
2022-11-05T22:55:44.805Z,8.70
2022-11-05T22:58:13.952Z,8.07
2022-11-05T23:00:43.196Z,7.70
2022-11-05T23:03:11.617Z,8.20
2022-11-05T23:05:39.958Z,7.83
2022-11-05T23:08:25.843Z,10.00
2022-11-05T23:11:13.068Z,15.40
2022-11-05T23:13:41.663Z,9.50
2022-11-05T23:16:27.648Z,11.07
2022-11-05T23:19:13.606Z,24.10
2022-11-05T23:22:04.972Z,10.40
2022-11-05T23:24:33.851Z,14.03
2022-11-05T23:27:03.838Z,9.33
2022-11-05T23:29:32.492Z,11.37
2022-11-05T23:32:18.882Z,13.47
2022-11-05T23:34:47.228Z,9.60
2022-11-05T23:37:33.680Z,7.97
2022-11-05T23:40:01.993Z,9.67
2022-11-05T23:42:49.187Z,12.03
2022-11-05T23:45:46.872Z,18.47
2022-11-05T23:48:23.848Z,14.67
2022-11-05T23:50:57.734Z,12.60
2022-11-05T23:53:26.697Z,15.07
2022-11-05T23:55:58.995Z,13.93
2022-11-05T23:58:29.447Z,10.87
